KTUP/TUP METAR and TAF weather

Enter ICAO airport designator
Station Type Date Time Source
KTUP METAR 2021/08/04 17:53 UTC NOAA

KTUP 041753Z 01009KT 10SM SCT055 29/16 A3004 RMK AO2 SLP167 T02940156 10306 20183 58002 $


Station Type Date Time Source
KTUP Decoded METAR 2021/08/04 17:53 UTC NOAA

TUPELO REGIONAL AIRPORT, MS, United States (KTUP) 34-16N 88-46W 105M
Aug 04, 2021 - 01:53 PM EDT / 2021.08.04 1753 UTC
Wind: from the N (010 degrees) at 10 MPH (9 KT):0
Visibility: 10 mile(s):0
Sky conditions: partly cloudy
Temperature: 84.9 F (29.4 C)
Dew Point: 60.1 F (15.6 C)
Relative Humidity: 43%
Pressure (altimeter): 30.04 in. Hg (1017 hPa)
Pressure tendency: 0.01 inches (0.2 hPa) lower than three hours ago
ob: KTUP 041753Z 01009KT 10SM SCT055 29/16 A3004 RMK AO2 SLP167 T02940156 10306 20183 58002
cycle: 18

Station Type Date Time Source
KTUP TAF 2021/08/04 18:22 UTC NOAA

TAF KTUP 041720Z 0418/0518 03010KT P6SM SCT040 SCT250
FM050100 VRB03KT P6SM FEW250
FM051400 06005KT P6SM SKC

Example: see airport list